AirNav   Air Wisconsin pilot careers
 
 385 users online  

KMMK Meriden Markham Municipal Airport
Meriden, Connecticut, USA

GOING TO MERIDEN?


FAA INFORMATION EFFECTIVE 23 MAY 2019

Location

FAA Identifier: MMK
Lat/Long: 41-30-31.3730N / 072-49-46.1220W
41-30.522883N / 072-49.768700W
41.5087147 / -72.8294783
(estimated)
Elevation: 103 ft. / 31.4 m (surveyed)
Variation: 14W (1995)
From city: 3 miles SW of MERIDEN, CT
Time zone: UTC -4 (UTC -5 during Standard Time)
Zip code: 06492

Airport Operations

Airport use: Open to the public
Activation date: 04/1940
Control tower: no
ARTCC: BOSTON CENTER
FSS: BRIDGEPORT FLIGHT SERVICE STATION
NOTAMs facility: MMK (NOTAM-D service available)
Attendance: MON-SUN 0900-1900
Wind indicator: lighted
Segmented circle: yes
Lights: ACTVT REIL RWY 36; MIRL RWY 18/36 - CTAF.
Beacon: white-green (lighted land airport)
Operates sunset to sunrise.

Airport Communications

CTAF/UNICOM: 123.05
WX ASOS: 134.925 (203-639-9405)
YANKEE APPROACH: 127.8
YANKEE DEPARTURE: 127.8
CLEARANCE DELIVERY: 120.65
WX AWOS-AV at CT71 (12 nm N): 129.825
WX AWOS-3PT at OXC (14 nm W): 132.975 (203-262-1190)
WX ASOS at HVN (15 nm S): PHONE 203-466-6205
WX ASOS at HFD (16 nm NE): PHONE 860-527-5837
WX AWOS-3 at SNC (16 nm SE): 118.325 (860-526-1551)

Nearby radio navigation aids

VOR radial/distance  VOR name  Freq  Var
MADr345/13.2MADISON VOR/DME110.4013W
HFDr251/14.9HARTFORD VOR/DME114.9013W
BDRr044/24.8BRIDGEPORT VOR/DME108.8012W
CCCr011/34.8CALVERTON VOR/DME117.2013W
CMKr080/36.5CARMEL VOR/DME116.6012W
GONr301/36.6GROTON VOR/DME110.8514W
ORWr280/37.4NORWICH VOR/DME110.0014W
PWLr126/38.0PAWLING VOR/DME114.3012W
BAFr201/39.5BARNES VORTAC113.0014W

 
NDB name  Hdg/Dist  Freq  Var  ID
CLERA073/14.836214WJWE .--- .-- .

Airport Services

Fuel available: 100LL
SELF SVC FUEL, CREDIT CARD ONLY (ALL MAJOR CARDS ACPTD).
Parking: tiedowns
Airframe service: MAJOR
Powerplant service: MAJOR
Bottled oxygen: NONE
Bulk oxygen: NONE

Runway Information

Runway 18/36

Dimensions: 3100 x 75 ft. / 945 x 23 m
Surface: asphalt, in good condition
Weight bearing capacity: 
Single wheel: 30.0
Runway edge lights: medium intensity
RUNWAY 18  RUNWAY 36
Latitude: 41-30.765183N41-30.280600N
Longitude: 072-49.875433W072-49.661983W
Elevation: 103.0 ft.98.6 ft.
Traffic pattern: leftleft
Runway heading: 176 magnetic, 162 true356 magnetic, 342 true
Markings: nonprecision, in fair conditionnonprecision, in fair condition
Visual slope indicator: 4-light PAPI on left (3.50 degrees glide path)
VGSI AND DSCNT ANGLES NOT COINCIDENT.
Runway end identifier lights: yes
Touchdown point: yes, no lightsyes, no lights
Obstructions: 12 ft. tree, 246 ft. from runway, 3:1 slope to clear
+20 FT TREES, 120 FT RIGHT OF AER.
50 ft. pline, marked and lighted, 1217 ft. from runway, 20:1 slope to clear

Airport Ownership and Management from official FAA records

Ownership: Publicly-owned
Owner: CITY OF MERIDEN
WILMA PETRO, PURCHASING, CITY HALL; 142 E MAIN ST
MERIDEN, CT 06450
Phone (203) 630-4115
Manager: CONSTANCE CASTILLO
213 EVANSVILLE AVENUE
MERIDEN, CT 06451
Phone 203-630-2878

Airport Operational Statistics

Aircraft based on the field: 52
Single engine airplanes: 50
Multi engine airplanes: 2
    
Aircraft operations: avg 46/day *
90% local general aviation
9% transient general aviation
1% air taxi
<1% military
* for 12-month period ending 30 September 2015

Additional Remarks

RWY 36 NO TGLS.
PPR FOR JET ACFT.
CRANE(S) +150 FT AGL, 1/4 MI NW AER 18, OPRG INTMT DALGT HRS.
CALM WIND RWY 18.
STD LEFT TFC, BOTH RWYS.
FOR CD CTC YANKEE APCH AT 860-386-3597.

Instrument Procedures

NOTE: All procedures below are presented as PDF files. If you need a reader for these files, you should download the free Adobe Reader.

NOT FOR NAVIGATION. Please procure official charts for flight.
FAA instrument procedures published for use from 23 May 2019 at 0901Z to 20 June 2019 at 0900Z.

 
IAPs - Instrument Approach Procedures
RNAV (GPS) RWY 36   download (189KB)
VOR RWY 36   download (235KB)
NOTE: Special Alternate Minimums apply   download (81KB)
NOTE: Special Take-Off Minimums/Departure Procedures apply   download (178KB)

Other nearby airports with instrument procedures:

4B8 - Robertson Field Airport (11 nm N)
KOXC - Waterbury-Oxford Airport (14 nm W)
KHVN - Tweed-New Haven Airport (15 nm S)
KHFD - Hartford-Brainard Airport (16 nm NE)
KSNC - Chester Airport (16 nm SE)
 
Loc | Ops | Rwys | IFR | FBO | Links
Com | Nav | Svcs | Stats | Notes

Silver City Flying Club
 
Area around KMMK (Meriden Markham Municipal Airport)
 
Road maps at: MapQuest Bing Google
 
Aerial photo
WARNING: Photo may not be current or correct
Aerial photo of KMMK (Meriden Markham Municipal Airport)
Photo courtesy of Stephen Taylor Photo
Photo taken 19-Aug-2012
looking southeast.

Do you have a better or more recent aerial photo of Meriden Markham Municipal Airport that you would like to share? If so, please send us your photo.

 
Sectional chart

 
Airport distance calculator
Flying to Meriden Markham Municipal Airport? Find the distance to fly.

From to KMMK

Sunrise and sunset
Times for 23-May-2019
 Local
(UTC-4)
 Zulu
(UTC)
Morning civil twilight04:5408:54
Sunrise05:2609:26
Sunset20:1000:10
Evening civil twilight20:4200:42

Current date and time
Zulu (UTC)  23-May-2019 05:35:34
Local (UTC-4)  23-May-2019 01:35:34
 
METAR
KMMK 230453Z AUTO 11003KT 10SM BKN110 12/09 A3022 RMK AO2 SLP233 T01220094 402500083
KOXC 
13nm W 
230451Z AUTO 14003KT 10SM OVC100 13/09 A3022 RMK AO2 SLP244 T01280089 402170072 PNO $
KHVN 
15nm S 
230453Z AUTO 06003KT 10SM SCT110 14/11 A3023 RMK AO2 SLP235 T01440111 402390128
KHFD 
16nm NE 
230453Z AUTO 17006KT 10SM CLR 13/09 A3023 RMK AO2 SLP235 T01280089 402330089
KSNC 
16nm SE 
230515Z AUTO 13003KT 10SM CLR 11/10 A3024 RMK AO2
TAF
KBDR 
25nm SW 
230232Z 2303/2324 VRB04KT P6SM BKN100 FM231200 19009KT P6SM BKN040 BKN080 FM231800 19013G19KT P6SM BKN040 OVC080 PROB30 2323/2324 3SM -TSRA OVC035CB
KBDL 
26nm N 
222030Z 2220/2324 33008KT P6SM FEW250 FM230500 17006KT P6SM BKN100 FM230900 16008KT P6SM VCSH BKN080 FM232100 18010G18KT 6SM -RA BR BKN030
NOTAMs
Click for the latest NOTAMs
NOTAMs are issued by the DoD/FAA and will open in a separate window not controlled by AirNav.

 

 
 

FBO, Fuel Providers, and Aircraft Ground Support

  
 Business Name 
 
 Contact 
 
 Services / Description 
 
Fuel Prices
 
Comments
  
City of Meriden 203-630-2878 Aviation fuel, Computerized weather, Internet access, Restrooms

More info about City of Meriden
Phillips 66
100LL
SS $5.18 
 Updated 22-May-2019
 
   1 read write
SS=Self service
Update Fuel Prices
 

Aviation Businesses, Services, and Facilities

  
 Business Name 
 
 Contact 
 
 Services / Description 
 
Distance
 
Comments
  
Silver City Flying Club 860-621-2070
[web site]
[email]
Flying club

More info about Silver City Flying Club
on airport  
   write
 

Would you like to see your business listed on this page?

 If your business provides an interesting product or service to pilots, flight crews, aircraft, or users of the Meriden Markham Municipal Airport, you should consider listing it here.  To start the listing process, click on the button below
 
Add a business
 

Other Pages about Meriden Markham Municipal Airport

Update a link
 
Copyright © AirNav, LLC. All rights reserved. Privacy Policy  Contact